createdAt,value
2023-02-17T00:01:14.785Z,97081.81
2023-02-17T00:03:41.543Z,97075.72
2023-02-17T00:06:11.790Z,97078.34
2023-02-17T00:08:38.612Z,97070.31
2023-02-17T00:11:05.758Z,97063.78
2023-02-17T00:13:33.244Z,97066.91
2023-02-17T00:16:00.501Z,97081.63
2023-02-17T00:18:27.137Z,97077.09
2023-02-17T00:20:53.807Z,97080.81
2023-02-17T00:23:20.403Z,97074.97
2023-02-17T00:25:47.132Z,97081.50
2023-02-17T00:28:13.722Z,97074.44
2023-02-17T00:30:40.472Z,97083.84
2023-02-17T00:33:07.084Z,97074.19
2023-02-17T00:35:33.794Z,97076.81
2023-02-17T00:38:00.486Z,97079.63
2023-02-17T00:40:27.091Z,97085.56
2023-02-17T00:42:54.981Z,97089.44
2023-02-17T00:45:21.719Z,97086.69
2023-02-17T00:47:48.434Z,97080.81
2023-02-17T00:50:15.067Z,97084.25
2023-02-17T00:52:41.751Z,97088.53
2023-02-17T00:55:08.574Z,97087.53
2023-02-17T00:57:35.205Z,97085.25
2023-02-17T01:00:01.831Z,97083.16
2023-02-17T01:02:28.427Z,97074.84
2023-02-17T01:04:55.114Z,97074.44
2023-02-17T01:07:21.848Z,97075.09
2023-02-17T01:09:48.482Z,97071.19
2023-02-17T01:12:15.119Z,97072.28
2023-02-17T01:14:41.766Z,97064.56
2023-02-17T01:17:08.386Z,97065.84
2023-02-17T01:19:35.005Z,97057.13
2023-02-17T01:22:01.645Z,97064.22
2023-02-17T01:24:28.333Z,97060.59
2023-02-17T01:26:55.189Z,97047.69
2023-02-17T01:29:21.789Z,97054.91
2023-02-17T01:31:48.436Z,97047.94
2023-02-17T01:34:15.079Z,97041.81
2023-02-17T01:36:41.775Z,97037.66
2023-02-17T01:39:08.358Z,97041.97
2023-02-17T01:41:35.026Z,97040.41
2023-02-17T01:44:12.714Z,97030.84
2023-02-17T01:46:41.552Z,97021.47
2023-02-17T01:49:24.440Z,97024.81
2023-02-17T01:51:57.149Z,97017.50
2023-02-17T01:54:34.016Z,97010.25
2023-02-17T01:57:02.058Z,97006.66
2023-02-17T01:59:30.070Z,97007.16
2023-02-17T02:02:00.670Z,96989.31
2023-02-17T02:04:32.125Z,96990.03
2023-02-17T02:06:59.527Z,96995.75
2023-02-17T02:09:32.656Z,96990.53
2023-02-17T02:12:00.289Z,96987.06
2023-02-17T02:14:27.888Z,96997.09
2023-02-17T02:17:35.538Z,96995.59
2023-02-17T02:20:26.177Z,96989.13
2023-02-17T02:23:07.981Z,96993.16
2023-02-17T02:25:52.542Z,96989.72
2023-02-17T02:28:31.066Z,96988.28
2023-02-17T02:31:18.889Z,96990.13
2023-02-17T02:33:56.730Z,97000.81
2023-02-17T02:36:34.539Z,96996.50
2023-02-17T02:39:15.846Z,96998.13
2023-02-17T02:41:50.414Z,96997.28
2023-02-17T02:44:19.725Z,96997.41
2023-02-17T02:47:27.808Z,96993.34
2023-02-17T02:49:54.491Z,96999.22
2023-02-17T02:52:35.319Z,97005.03
2023-02-17T02:55:13.685Z,96995.34
2023-02-17T02:58:12.608Z,97002.47
2023-02-17T03:01:07.383Z,97003.97
2023-02-17T03:03:52.515Z,97003.97
2023-02-17T03:06:39.500Z,97004.06
2023-02-17T03:09:20.595Z,96999.72
2023-02-17T03:11:47.839Z,96995.41
2023-02-17T03:14:17.875Z,97000.94
2023-02-17T03:16:45.187Z,97005.53
2023-02-17T03:19:13.884Z,96990.66
2023-02-17T03:21:57.680Z,96991.84
2023-02-17T03:24:25.010Z,96992.03
2023-02-17T03:26:51.632Z,96993.66
2023-02-17T03:29:18.390Z,96996.81
2023-02-17T03:31:45.181Z,96996.75
2023-02-17T03:34:11.845Z,96983.03
2023-02-17T03:36:38.441Z,96996.00
2023-02-17T03:39:05.049Z,96991.22
2023-02-17T03:41:31.686Z,96991.69
2023-02-17T03:43:58.319Z,96993.97
2023-02-17T03:46:25.078Z,97004.72
2023-02-17T03:48:52.162Z,97003.56
2023-02-17T03:51:24.217Z,97002.97
2023-02-17T03:53:51.052Z,97014.53
2023-02-17T03:56:18.757Z,97011.94
2023-02-17T03:58:45.478Z,97008.13
2023-02-17T04:01:12.934Z,97004.66
2023-02-17T04:03:40.474Z,97005.84
2023-02-17T04:06:08.600Z,97009.13
2023-02-17T04:08:35.391Z,97013.44
2023-02-17T04:11:04.136Z,97013.03
2023-02-17T04:13:30.844Z,97002.97
2023-02-17T04:15:57.553Z,97007.31
2023-02-17T04:18:24.558Z,96999.88
2023-02-17T04:20:51.765Z,97004.69
2023-02-17T04:23:18.885Z,97006.09
2023-02-17T04:25:46.108Z,97006.81
2023-02-17T04:28:13.448Z,97016.31
2023-02-17T04:30:42.569Z,97000.25
2023-02-17T04:33:09.260Z,97011.03
2023-02-17T04:35:35.914Z,97004.56
2023-02-17T04:38:02.719Z,97002.66
2023-02-17T04:40:29.315Z,97010.41
2023-02-17T04:42:55.936Z,97006.19
2023-02-17T04:45:23.438Z,97003.47
2023-02-17T04:47:50.225Z,97000.75
2023-02-17T04:50:16.938Z,97003.06
2023-02-17T04:52:43.578Z,97000.97
2023-02-17T04:55:10.308Z,96995.13
2023-02-17T04:57:37.009Z,97001.66
2023-02-17T05:00:06.185Z,97000.50
2023-02-17T05:02:32.924Z,96980.00
2023-02-17T05:04:59.538Z,96984.94
2023-02-17T05:07:26.234Z,96991.13
2023-02-17T05:09:54.161Z,96991.66
2023-02-17T05:12:20.787Z,96977.72
2023-02-17T05:14:47.446Z,96981.19
2023-02-17T05:17:14.072Z,96972.72
2023-02-17T05:19:40.694Z,96970.09
2023-02-17T05:22:07.321Z,96973.31
2023-02-17T05:24:33.913Z,96968.09
2023-02-17T05:27:00.542Z,96961.53
2023-02-17T05:29:27.148Z,96968.22
2023-02-17T05:31:53.842Z,96969.81
2023-02-17T05:34:20.506Z,96961.84
2023-02-17T05:36:47.126Z,96961.75
2023-02-17T05:39:13.807Z,96963.47
2023-02-17T05:41:40.415Z,96959.00
2023-02-17T05:44:07.002Z,96957.41
2023-02-17T05:46:33.646Z,96959.75
2023-02-17T05:49:00.283Z,96967.44
2023-02-17T05:51:26.931Z,96972.94
2023-02-17T05:53:53.530Z,96965.38
2023-02-17T05:56:20.339Z,96958.69
2023-02-17T05:58:46.955Z,96959.06
2023-02-17T06:01:13.799Z,96957.22
2023-02-17T06:03:40.755Z,96956.09
2023-02-17T06:06:08.180Z,96957.13
2023-02-17T06:08:35.431Z,96952.81
2023-02-17T06:11:02.071Z,96956.63
2023-02-17T06:13:28.782Z,96961.22
2023-02-17T06:15:55.433Z,96962.63
2023-02-17T06:18:22.052Z,96966.66
2023-02-17T06:20:48.652Z,96962.41
2023-02-17T06:23:15.263Z,96962.91
2023-02-17T06:25:42.610Z,96962.75
2023-02-17T06:28:09.221Z,96955.66
2023-02-17T06:30:35.812Z,96947.50
2023-02-17T06:33:02.457Z,96949.25
2023-02-17T06:35:29.072Z,96948.75
2023-02-17T06:37:55.758Z,96946.63
2023-02-17T06:40:22.550Z,96941.66
2023-02-17T06:42:49.420Z,96944.66
2023-02-17T06:45:16.573Z,96927.28
2023-02-17T06:47:43.160Z,96923.81
2023-02-17T06:50:11.159Z,96916.06
2023-02-17T06:52:37.885Z,96917.13
2023-02-17T06:55:05.044Z,96919.06
2023-02-17T06:57:31.641Z,96934.28
2023-02-17T06:59:58.320Z,96937.41
2023-02-17T07:02:25.088Z,96924.72
2023-02-17T07:04:51.805Z,96921.56
2023-02-17T07:07:18.386Z,96923.00
2023-02-17T07:09:44.983Z,96915.38
2023-02-17T07:12:11.573Z,96904.69
2023-02-17T07:14:38.344Z,96906.28
2023-02-17T07:17:05.015Z,96921.56
2023-02-17T07:19:31.704Z,96920.72
2023-02-17T07:21:58.362Z,96924.22
2023-02-17T07:24:25.214Z,96929.88
2023-02-17T07:26:53.788Z,96927.75
2023-02-17T07:29:20.418Z,96924.28
2023-02-17T07:31:47.300Z,96927.75
2023-02-17T07:34:13.965Z,96931.78
2023-02-17T07:36:40.560Z,96929.09
2023-02-17T07:39:07.311Z,96935.56
2023-02-17T07:41:33.987Z,96928.31
2023-02-17T07:44:00.587Z,96932.34
2023-02-17T07:46:27.746Z,96927.78
2023-02-17T07:48:56.413Z,96934.75
2023-02-17T07:51:23.544Z,96926.69
2023-02-17T07:53:51.720Z,96931.25
2023-02-17T07:56:21.553Z,96936.38
2023-02-17T07:58:48.709Z,96940.66
2023-02-17T08:01:16.543Z,96943.88
2023-02-17T08:03:43.862Z,96952.97
2023-02-17T08:06:12.600Z,96953.50
2023-02-17T08:08:57.997Z,96956.16
2023-02-17T08:11:45.017Z,96965.00
2023-02-17T08:14:13.295Z,96957.75
2023-02-17T08:16:40.434Z,96963.66
2023-02-17T08:19:07.728Z,96927.66
2023-02-17T08:21:35.229Z,96955.88
2023-02-17T08:24:01.855Z,96965.81
2023-02-17T08:26:28.727Z,96959.31
2023-02-17T08:28:56.217Z,96941.31
2023-02-17T08:31:26.413Z,96948.00
2023-02-17T08:33:53.188Z,96939.84
2023-02-17T08:36:22.322Z,96950.84
2023-02-17T08:38:51.271Z,96949.97
2023-02-17T08:41:22.228Z,96924.63
2023-02-17T08:43:49.842Z,96933.16
2023-02-17T08:46:18.034Z,96937.31
2023-02-17T08:48:45.845Z,96946.94
2023-02-17T08:51:14.915Z,96949.25
2023-02-17T08:53:42.061Z,96953.22
2023-02-17T08:56:09.293Z,96953.22
2023-02-17T08:58:36.464Z,96946.19
2023-02-17T09:01:04.090Z,96952.16
2023-02-17T09:03:33.133Z,96942.19
2023-02-17T09:05:59.748Z,96956.03
2023-02-17T09:08:27.642Z,96957.44
2023-02-17T09:10:54.332Z,96957.91
2023-02-17T09:13:21.055Z,96956.78
2023-02-17T09:15:47.998Z,96951.16
2023-02-17T09:18:14.650Z,96954.06
2023-02-17T09:20:41.535Z,96958.31
2023-02-17T09:23:08.471Z,96949.13
2023-02-17T09:25:35.148Z,96954.69
2023-02-17T09:28:02.035Z,96967.84
2023-02-17T09:30:28.777Z,96961.34
2023-02-17T09:32:55.499Z,96975.31
2023-02-17T09:35:22.127Z,96970.41
2023-02-17T09:37:49.075Z,96975.22
2023-02-17T09:40:22.266Z,96974.69
2023-02-17T09:42:49.178Z,96980.97
2023-02-17T09:45:44.122Z,96974.63
2023-02-17T09:48:15.544Z,96982.03
2023-02-17T09:51:12.481Z,96982.34
2023-02-17T09:53:54.130Z,96996.59
2023-02-17T09:56:30.337Z,96997.91
2023-02-17T09:59:02.215Z,96978.78
2023-02-17T10:01:32.067Z,96990.59
2023-02-17T10:04:04.931Z,96990.78
2023-02-17T10:06:36.096Z,96986.53
2023-02-17T10:09:15.558Z,96980.28
2023-02-17T10:11:46.330Z,96977.50
2023-02-17T10:14:19.207Z,96977.19
2023-02-17T10:16:53.471Z,96973.66
2023-02-17T10:19:31.607Z,96969.13
2023-02-17T10:22:06.765Z,96974.97
2023-02-17T10:24:33.423Z,96986.03
2023-02-17T10:27:08.959Z,96975.69
2023-02-17T10:29:47.682Z,96980.13
2023-02-17T10:32:19.968Z,96984.94
2023-02-17T10:34:46.754Z,96985.97
2023-02-17T10:37:47.452Z,96984.81
2023-02-17T10:40:34.461Z,96990.53
2023-02-17T10:43:07.046Z,96987.09
2023-02-17T10:45:36.135Z,96992.84
2023-02-17T10:48:08.962Z,96981.47
2023-02-17T10:50:38.013Z,96991.69
2023-02-17T10:53:14.609Z,96986.50
2023-02-17T10:55:53.146Z,96990.88
2023-02-17T10:58:26.497Z,96983.31
2023-02-17T11:00:56.936Z,96982.38
2023-02-17T11:03:29.599Z,96988.81
2023-02-17T11:06:20.311Z,96986.28
2023-02-17T11:09:01.047Z,96987.09
2023-02-17T11:11:30.680Z,96986.00
2023-02-17T11:14:12.159Z,96985.16
2023-02-17T11:16:45.834Z,96979.41
2023-02-17T11:19:27.874Z,96985.69
2023-02-17T11:21:57.436Z,96973.91
2023-02-17T11:24:24.587Z,96971.97
2023-02-17T11:26:57.579Z,96978.47
2023-02-17T11:29:24.450Z,96989.78
2023-02-17T11:32:09.274Z,96968.66
2023-02-17T11:34:38.668Z,96974.34
2023-02-17T11:37:14.290Z,96968.13
2023-02-17T11:39:46.570Z,96958.75
2023-02-17T11:42:28.032Z,96948.34
2023-02-17T11:44:56.784Z,96943.31
2023-02-17T11:47:52.541Z,96944.13
2023-02-17T11:50:49.751Z,96921.06
2023-02-17T11:53:46.842Z,96915.94
2023-02-17T11:56:18.071Z,96901.97
2023-02-17T11:58:59.895Z,96891.22
2023-02-17T12:02:00.461Z,96896.03
2023-02-17T12:04:32.522Z,96903.00
2023-02-17T12:07:37.177Z,96886.13
2023-02-17T12:10:41.862Z,96885.56
2023-02-17T12:13:20.777Z,96888.31
2023-02-17T12:16:19.509Z,96874.59
2023-02-17T12:18:53.895Z,96877.81
2023-02-17T12:21:44.786Z,96888.00
2023-02-17T12:24:38.512Z,96877.03
2023-02-17T12:27:23.015Z,96864.63
2023-02-17T12:29:50.735Z,96851.38
2023-02-17T12:32:26.382Z,96852.72
2023-02-17T12:34:59.070Z,96849.28
2023-02-17T12:37:31.304Z,96845.16
2023-02-17T12:40:22.185Z,96836.75
2023-02-17T12:43:05.644Z,96834.78
2023-02-17T12:45:42.784Z,96832.19
2023-02-17T12:48:37.120Z,96832.91
2023-02-17T12:51:12.466Z,96826.44
2023-02-17T12:54:06.442Z,96820.91
2023-02-17T12:56:47.697Z,96804.63
2023-02-17T12:59:17.464Z,96810.44
2023-02-17T13:01:55.426Z,96799.59
2023-02-17T13:04:25.210Z,96787.59
2023-02-17T13:07:30.237Z,96788.34
2023-02-17T13:09:57.395Z,96786.22
2023-02-17T13:12:24.218Z,96781.34
2023-02-17T13:14:59.598Z,96780.38
2023-02-17T13:17:27.798Z,96776.13
2023-02-17T13:20:26.077Z,96781.91
2023-02-17T13:23:05.451Z,96780.97
2023-02-17T13:25:37.543Z,96774.44
2023-02-17T13:28:18.645Z,96775.44
2023-02-17T13:30:48.330Z,96783.44
2023-02-17T13:33:40.740Z,96782.22
2023-02-17T13:36:33.794Z,96781.25
2023-02-17T13:39:04.292Z,96761.09
2023-02-17T13:41:48.624Z,96774.91
2023-02-17T13:44:33.781Z,96769.06
2023-02-17T13:47:07.678Z,96759.53
2023-02-17T13:49:35.302Z,96753.47
2023-02-17T13:52:17.882Z,96757.25
2023-02-17T13:55:20.499Z,96768.28
2023-02-17T13:57:53.151Z,96763.94
2023-02-17T14:00:24.924Z,96763.72
2023-02-17T14:03:19.077Z,96770.09
2023-02-17T14:05:47.839Z,96774.97
2023-02-17T14:08:36.889Z,96760.84
2023-02-17T14:11:16.744Z,96767.78
2023-02-17T14:13:46.484Z,96764.38
2023-02-17T14:16:34.467Z,96772.19
2023-02-17T14:19:12.796Z,96775.00
2023-02-17T14:21:57.355Z,96770.19
2023-02-17T14:24:34.039Z,96783.22
2023-02-17T14:27:14.234Z,96768.03
2023-02-17T14:29:43.259Z,96769.22
2023-02-17T14:32:31.183Z,96771.41
2023-02-17T14:35:30.332Z,96776.03
2023-02-17T14:38:19.027Z,96769.84
2023-02-17T14:40:45.625Z,96758.56
2023-02-17T14:43:12.238Z,96765.75
2023-02-17T14:45:38.887Z,96768.00
2023-02-17T14:48:05.963Z,96757.59
2023-02-17T14:50:34.274Z,96768.38
2023-02-17T14:53:00.905Z,96757.59
2023-02-17T14:55:39.001Z,96761.97
2023-02-17T14:58:05.843Z,96776.56
2023-02-17T15:00:32.458Z,96768.47
2023-02-17T15:02:59.116Z,96769.78
2023-02-17T15:05:25.870Z,96766.19
2023-02-17T15:07:52.570Z,96763.97
2023-02-17T15:10:27.459Z,96759.28
2023-02-17T15:12:54.623Z,96761.19
2023-02-17T15:15:21.350Z,96771.69
2023-02-17T15:17:48.785Z,96764.34
2023-02-17T15:20:16.761Z,96766.34
2023-02-17T15:22:44.426Z,96766.94
2023-02-17T15:25:22.190Z,96762.56
2023-02-17T15:27:49.061Z,96770.66
2023-02-17T15:30:18.514Z,96766.44
2023-02-17T15:32:46.695Z,96774.53
2023-02-17T15:35:26.859Z,96782.72
2023-02-17T15:37:54.191Z,96793.53
2023-02-17T15:40:23.820Z,96800.50
2023-02-17T15:42:55.143Z,96794.50
2023-02-17T15:45:24.142Z,96803.88
2023-02-17T15:47:52.434Z,96822.59
2023-02-17T15:50:23.033Z,96808.69
2023-02-17T15:52:51.175Z,96821.41
2023-02-17T15:55:19.644Z,96828.53
2023-02-17T15:57:55.954Z,96837.41
2023-02-17T16:00:26.913Z,96836.34
2023-02-17T16:02:54.302Z,96845.66
2023-02-17T16:05:25.498Z,96839.00
2023-02-17T16:07:52.237Z,96836.59
2023-02-17T16:10:21.679Z,96847.53
2023-02-17T16:12:50.498Z,96846.22
2023-02-17T16:15:23.295Z,96845.38
2023-02-17T16:17:51.179Z,96855.25
2023-02-17T16:20:20.249Z,96849.03
2023-02-17T16:22:47.071Z,96851.19
2023-02-17T16:25:16.351Z,96854.72
2023-02-17T16:27:45.194Z,96848.50
2023-02-17T16:30:30.154Z,96854.19
2023-02-17T16:32:57.111Z,96842.84
2023-02-17T16:35:26.420Z,96849.53
2023-02-17T16:38:05.285Z,96849.91
2023-02-17T16:40:36.496Z,96842.47
2023-02-17T16:43:04.130Z,96851.28
2023-02-17T16:45:33.658Z,96839.34
2023-02-17T16:48:01.754Z,96831.97
2023-02-17T16:50:34.316Z,96838.84
2023-02-17T16:53:04.235Z,96835.19
2023-02-17T16:55:33.900Z,96833.38
2023-02-17T16:58:01.460Z,96850.53
2023-02-17T17:00:31.697Z,96837.31
2023-02-17T17:02:58.842Z,96844.03
2023-02-17T17:05:29.198Z,96827.69
2023-02-17T17:07:56.269Z,96840.03
2023-02-17T17:10:27.509Z,96835.28
2023-02-17T17:12:54.245Z,96840.69
2023-02-17T17:15:21.490Z,96828.56
2023-02-17T17:18:00.268Z,96834.75
2023-02-17T17:20:34.188Z,96828.25
2023-02-17T17:23:06.422Z,96828.84
2023-02-17T17:25:37.060Z,96834.47
2023-02-17T17:28:04.706Z,96835.06
2023-02-17T17:30:35.686Z,96838.28
2023-02-17T17:33:02.974Z,96829.34
2023-02-17T17:35:30.488Z,96835.88
2023-02-17T17:37:58.788Z,96831.56
2023-02-17T17:40:28.926Z,96834.22
2023-02-17T17:42:55.756Z,96829.91
2023-02-17T17:45:23.916Z,96831.22
2023-02-17T17:47:51.388Z,96842.25
2023-02-17T17:50:22.706Z,96842.06
2023-02-17T17:52:49.602Z,96846.09
2023-02-17T17:55:16.319Z,96842.25
2023-02-17T17:57:44.683Z,96853.28
2023-02-17T18:00:15.148Z,96834.47
2023-02-17T18:02:42.121Z,96832.03
2023-02-17T18:05:09.403Z,96834.19
2023-02-17T18:07:38.452Z,96836.81
2023-02-17T18:10:09.677Z,96830.88
2023-02-17T18:12:37.099Z,96839.25
2023-02-17T18:15:05.366Z,96844.03
2023-02-17T18:17:35.418Z,96841.63
2023-02-17T18:20:02.320Z,96846.44
2023-02-17T18:22:28.983Z,96843.94
2023-02-17T18:24:55.606Z,96835.00
2023-02-17T18:27:22.921Z,96836.72
2023-02-17T18:29:49.592Z,96832.97
2023-02-17T18:32:16.174Z,96827.22
2023-02-17T18:34:42.782Z,96815.13
2023-02-17T18:37:09.411Z,96824.75
2023-02-17T18:39:36.032Z,96810.22
2023-02-17T18:42:02.726Z,96822.22
2023-02-17T18:44:29.335Z,96809.34
2023-02-17T18:46:55.951Z,96816.38
2023-02-17T18:49:22.576Z,96816.84
2023-02-17T18:51:50.685Z,96819.25
2023-02-17T18:54:17.303Z,96819.06
2023-02-17T18:56:43.951Z,96818.53
2023-02-17T18:59:10.588Z,96803.53
2023-02-17T19:01:41.538Z,96810.75
2023-02-17T19:04:09.765Z,96809.41
2023-02-17T19:06:36.474Z,96801.34
2023-02-17T19:09:07.306Z,96794.91
2023-02-17T19:11:34.440Z,96794.34
2023-02-17T19:14:02.041Z,96800.00
2023-02-17T19:16:30.945Z,96795.88
2023-02-17T19:18:58.386Z,96790.53
2023-02-17T19:21:25.493Z,96782.88
2023-02-17T19:23:52.862Z,96783.41
2023-02-17T19:26:20.227Z,96784.75
2023-02-17T19:28:47.367Z,96778.88
2023-02-17T19:31:16.816Z,96770.28
2023-02-17T19:33:44.860Z,96776.53
2023-02-17T19:36:22.384Z,96777.28
2023-02-17T19:38:50.256Z,96767.56
2023-02-17T19:41:18.249Z,96780.47
2023-02-17T19:43:45.307Z,96789.03
2023-02-17T19:46:14.513Z,96789.03
2023-02-17T19:48:41.582Z,96790.31
2023-02-17T19:51:09.846Z,96791.06
2023-02-17T19:53:36.914Z,96784.72
2023-02-17T19:56:12.346Z,96790.28
2023-02-17T19:58:40.878Z,96795.78
2023-02-17T20:01:09.695Z,96798.38
2023-02-17T20:03:36.677Z,96804.84
2023-02-17T20:06:12.331Z,96805.88
2023-02-17T20:08:39.997Z,96806.31
2023-02-17T20:11:09.312Z,96811.19
2023-02-17T20:13:45.672Z,96818.69
2023-02-17T20:16:15.773Z,96798.75
2023-02-17T20:18:44.915Z,96799.75
2023-02-17T20:21:14.530Z,96810.53
2023-02-17T20:23:41.944Z,96806.13
2023-02-17T20:26:15.030Z,96796.94
2023-02-17T20:28:41.681Z,96798.69
2023-02-17T20:31:09.391Z,96805.34
2023-02-17T20:33:36.551Z,96803.94
2023-02-17T20:36:04.177Z,96808.31
2023-02-17T20:38:30.782Z,96800.69
2023-02-17T20:40:57.577Z,96804.53
2023-02-17T20:43:24.240Z,96789.06
2023-02-17T20:45:52.185Z,96789.16
2023-02-17T20:48:19.127Z,96781.34
2023-02-17T20:50:45.752Z,96772.78
2023-02-17T20:53:13.219Z,96777.78
2023-02-17T20:55:40.023Z,96773.88
2023-02-17T20:58:06.723Z,96775.41
2023-02-17T21:00:34.166Z,96770.31
2023-02-17T21:03:01.014Z,96767.09
2023-02-17T21:05:27.671Z,96778.75
2023-02-17T21:07:56.662Z,96777.50
2023-02-17T21:10:27.425Z,96779.44
2023-02-17T21:12:54.482Z,96779.44
2023-02-17T21:15:21.522Z,96781.66
2023-02-17T21:17:49.192Z,96777.09
2023-02-17T21:20:19.269Z,96790.88
2023-02-17T21:22:45.981Z,96790.72
2023-02-17T21:25:13.149Z,96793.41
2023-02-17T21:27:39.773Z,96792.34
2023-02-17T21:30:08.404Z,96801.34
2023-02-17T21:32:35.168Z,96803.94
2023-02-17T21:35:01.956Z,96803.94
2023-02-17T21:37:28.638Z,96810.31
2023-02-17T21:39:55.302Z,96803.41
2023-02-17T21:42:43.645Z,96806.47
2023-02-17T21:45:12.198Z,96804.06
2023-02-17T21:47:38.855Z,96815.44
2023-02-17T21:50:06.315Z,96820.72
2023-02-17T21:52:32.962Z,96817.44
2023-02-17T21:55:01.104Z,96816.31
2023-02-17T21:57:27.833Z,96833.28
2023-02-17T21:59:54.593Z,96836.75
2023-02-17T22:02:21.237Z,96827.97
2023-02-17T22:04:47.853Z,96839.34
2023-02-17T22:07:14.532Z,96842.03
2023-02-17T22:09:41.139Z,96832.81
2023-02-17T22:12:07.875Z,96838.69
2023-02-17T22:14:34.634Z,96844.84
2023-02-17T22:17:01.294Z,96852.66
2023-02-17T22:19:31.246Z,96852.44
2023-02-17T22:21:58.347Z,96857.16
2023-02-17T22:24:27.274Z,96849.09
2023-02-17T22:26:54.824Z,96859.94
2023-02-17T22:29:21.523Z,96862.06
2023-02-17T22:31:50.298Z,96863.88
2023-02-17T22:34:17.197Z,96855.25
2023-02-17T22:36:43.800Z,96865.84
2023-02-17T22:39:10.551Z,96863.22
2023-02-17T22:41:38.811Z,96864.81
2023-02-17T22:44:05.581Z,96867.00
2023-02-17T22:46:32.334Z,96875.81
2023-02-17T22:48:59.518Z,96880.84
2023-02-17T22:51:31.333Z,96874.59
2023-02-17T22:53:59.957Z,96867.22
2023-02-17T22:56:26.665Z,96870.44
2023-02-17T22:58:58.029Z,96888.56
2023-02-17T23:01:25.264Z,96886.38
2023-02-17T23:03:54.619Z,96888.47
2023-02-17T23:06:25.197Z,96889.00
2023-02-17T23:08:53.065Z,96894.81
2023-02-17T23:11:42.965Z,96902.41
2023-02-17T23:14:11.160Z,96899.22
2023-02-17T23:16:38.149Z,96898.34
2023-02-17T23:19:13.910Z,96908.66
2023-02-17T23:21:52.235Z,96921.94
2023-02-17T23:24:19.827Z,96915.50
2023-02-17T23:26:47.584Z,96909.81
2023-02-17T23:29:14.939Z,96931.66
2023-02-17T23:31:41.593Z,96917.69
2023-02-17T23:34:08.509Z,96923.09
2023-02-17T23:36:35.142Z,96917.13
2023-02-17T23:39:01.787Z,96915.00
2023-02-17T23:41:28.558Z,96913.47
2023-02-17T23:43:55.163Z,96925.50
2023-02-17T23:46:21.902Z,96923.28
2023-02-17T23:48:48.813Z,96925.25
2023-02-17T23:51:17.680Z,96917.44
2023-02-17T23:53:45.116Z,96924.94
2023-02-17T23:56:27.990Z,96919.31
2023-02-17T23:58:54.702Z,96929.63
